This is the latest recevied weather packets stored in our database for station/object IW1CBG-3. If no packets are shown the sender has not sent any weather packets the latest 10 day(s).
| Time | Temp. | Humidity | Pressure | Rain* | Wind** | Luminosity | Snow |
|---|---|---|---|---|---|---|---|
| 1788456406 | 23.33° C | 82% | 1028.6 hPa | 0 mm | - | - | - |
| 1788455776 | 23.33° C | 83% | 1028.5 hPa | 0 mm | - | - | - |
| 1788455177 | 24.44° C | 81% | 1028.3 hPa | 0 mm | - | - | - |
| 1788454577 | 26.11° C | 75% | 1027.8 hPa | 0 mm | - | - | - |
| 1788453976 | 25.56° C | 70% | 1028.2 hPa | 0 mm | - | - | - |
| 1788453376 | 25.56° C | 70% | 1027.9 hPa | 0 mm | - | - | - |
| 1788452776 | 25.56° C | 70% | 1027.9 hPa | 0 mm | - | - | - |
| 1788452176 | 26.11° C | 70% | 1027.5 hPa | 0 mm | - | - | - |
| 1788451578 | 26.11° C | 70% | 1027.3 hPa | 0 mm | - | - | - |
| 1788450979 | 26.11° C | 69% | 1027.3 hPa | 0 mm | - | - | - |
| 1788450376 | 26.67° C | 68% | 1027.3 hPa | 0 mm | - | - | - |
| 1788449776 | 26.67° C | 68% | 1027.4 hPa | 0 mm | - | - | - |
| 1788449176 | 26.67° C | 69% | 1027.2 hPa | 0 mm | - | - | - |
| 1788448576 | 26.67° C | 68% | 1027.5 hPa | 0 mm | - | - | - |
| 1788447977 | 26.67° C | 68% | 1027.4 hPa | 0 mm | - | - | - |
| 1788447376 | 26.67° C | 69% | 1027.5 hPa | 0 mm | - | - | - |
| 1788446777 | 26.67° C | 68% | 1027.7 hPa | 0 mm | - | - | - |
| 1788446176 | 26.67° C | 69% | 1027.5 hPa | 0 mm | - | - | - |
| 1788445576 | 27.22° C | 68% | 1027.3 hPa | 0 mm | - | - | - |
| 1788444976 | 27.22° C | 68% | 1027.2 hPa | 0 mm | - | - | - |
| 1788444380 | 27.22° C | 69% | 1027.5 hPa | 0 mm | - | - | - |
| 1788443777 | 27.22° C | 68% | 1027.5 hPa | 0 mm | - | - | - |
| 1788443178 | 27.22° C | 69% | 1027.4 hPa | 0 mm | - | - | - |
| 1788442577 | 26.67° C | 70% | 1027.7 hPa | 0 mm | - | - | - |
| 1788441977 | 27.22° C | 69% | 1027.4 hPa | 0 mm | - | - | - |
* Rain latest hour (hover to see other rain measurements)
** Current wind speed in m/s (hover to see current wind gust speed)